createdAt,value
2018-07-22T00:00:02.604Z,2.52
2018-07-22T00:02:30.854Z,2.77
2018-07-22T00:04:59.086Z,4.05
2018-07-22T00:07:27.372Z,2.87
2018-07-22T00:09:55.588Z,2.30
2018-07-22T00:12:23.896Z,3.70
2018-07-22T00:14:52.141Z,4.75
2018-07-22T00:17:20.367Z,4.55
2018-07-22T00:19:48.598Z,2.05
2018-07-22T00:22:16.837Z,3.25
2018-07-22T00:24:45.137Z,2.95
2018-07-22T00:27:13.433Z,3.33
2018-07-22T00:29:41.667Z,5.08
2018-07-22T00:32:09.936Z,4.17
2018-07-22T00:34:38.147Z,3.85
2018-07-22T00:37:06.497Z,5.40
2018-07-22T00:39:34.809Z,7.58
2018-07-22T00:42:03.172Z,4.67
2018-07-22T00:44:31.720Z,6.12
2018-07-22T00:46:59.939Z,5.92
2018-07-22T00:49:28.171Z,6.72
2018-07-22T00:51:56.397Z,6.45
2018-07-22T00:54:24.633Z,4.45
2018-07-22T00:56:52.841Z,4.95
2018-07-22T00:59:21.072Z,6.70
2018-07-22T01:01:49.302Z,7.90
2018-07-22T01:04:17.587Z,5.33
2018-07-22T01:06:45.843Z,7.75
2018-07-22T01:09:14.123Z,8.75
2018-07-22T01:11:42.330Z,9.25
2018-07-22T01:14:10.584Z,8.85
2018-07-22T01:16:38.831Z,10.82
2018-07-22T01:19:07.045Z,11.50
2018-07-22T01:21:35.277Z,7.70
2018-07-22T01:24:03.565Z,11.93
2018-07-22T01:26:31.968Z,8.93
2018-07-22T01:29:00.275Z,10.98
2018-07-22T01:31:28.536Z,15.85
2018-07-22T01:33:56.795Z,11.65
2018-07-22T01:36:25.073Z,11.70
2018-07-22T01:38:53.347Z,11.53
2018-07-22T01:41:21.623Z,13.78
2018-07-22T01:43:49.854Z,17.90
2018-07-22T01:46:18.125Z,14.95
2018-07-22T01:48:46.360Z,14.43
2018-07-22T01:51:14.643Z,11.80
2018-07-22T01:53:42.865Z,15.55
2018-07-22T01:56:11.147Z,12.18
2018-07-22T01:58:45.969Z,12.88
2018-07-22T02:01:14.328Z,15.80
2018-07-22T02:03:42.608Z,13.60
2018-07-22T02:06:10.869Z,25.08
2018-07-22T02:08:39.089Z,17.50
2018-07-22T02:11:07.304Z,16.93
2018-07-22T02:13:35.572Z,15.18
2018-07-22T02:16:03.864Z,16.60
2018-07-22T02:18:32.104Z,15.43
2018-07-22T02:21:00.344Z,16.25
2018-07-22T02:23:28.673Z,19.50
2018-07-22T02:25:57.885Z,19.70
2018-07-22T02:28:26.153Z,18.15
2018-07-22T02:30:57.473Z,22.62
2018-07-22T02:33:25.693Z,15.23
2018-07-22T02:35:53.968Z,17.57
2018-07-22T02:38:22.246Z,18.35
2018-07-22T02:40:50.754Z,21.90
2018-07-22T02:43:19.010Z,19.67
2018-07-22T02:45:47.258Z,16.48
2018-07-22T02:48:15.535Z,15.32
2018-07-22T02:50:43.800Z,18.05
2018-07-22T02:53:12.055Z,17.82
2018-07-22T02:55:40.303Z,17.45
2018-07-22T02:58:08.532Z,16.30
2018-07-22T03:00:36.779Z,18.70
2018-07-22T03:03:05.189Z,18.95
2018-07-22T03:05:33.417Z,14.25
2018-07-22T03:08:01.695Z,19.30
2018-07-22T03:10:29.917Z,11.63
2018-07-22T03:12:58.145Z,14.90
2018-07-22T03:15:26.380Z,15.13
2018-07-22T03:17:54.859Z,17.87
2018-07-22T03:20:23.096Z,15.80
2018-07-22T03:22:51.348Z,14.13
2018-07-22T03:25:19.615Z,12.73
2018-07-22T03:27:47.817Z,15.55
2018-07-22T03:30:16.167Z,14.25
2018-07-22T03:32:44.475Z,15.45
2018-07-22T03:35:12.708Z,13.05
2018-07-22T03:37:40.946Z,15.60
2018-07-22T03:40:09.273Z,15.53
2018-07-22T03:42:37.503Z,15.43
2018-07-22T03:45:05.970Z,15.85
2018-07-22T03:47:34.181Z,15.48
2018-07-22T03:50:02.413Z,17.57
2018-07-22T03:52:30.638Z,19.48
2018-07-22T03:54:58.876Z,19.05
2018-07-22T03:57:27.203Z,21.02
2018-07-22T03:59:55.424Z,19.05
2018-07-22T04:02:23.697Z,14.07
2018-07-22T04:04:52.035Z,20.95
2018-07-22T04:07:20.273Z,17.92
2018-07-22T04:09:48.488Z,17.00
2018-07-22T04:12:16.712Z,24.57
2018-07-22T04:14:45.548Z,19.37
2018-07-22T04:17:13.857Z,18.02
2018-07-22T04:19:42.861Z,17.55
2018-07-22T04:22:11.061Z,21.25
2018-07-22T04:24:39.470Z,20.50
2018-07-22T04:27:07.876Z,19.80
2018-07-22T04:29:36.169Z,20.15
2018-07-22T04:32:04.434Z,22.35
2018-07-22T04:34:32.682Z,22.67
2018-07-22T04:37:00.937Z,25.12
2018-07-22T04:39:29.180Z,22.77
2018-07-22T04:41:57.408Z,20.43
2018-07-22T04:44:25.655Z,19.55
2018-07-22T04:46:53.900Z,21.35
2018-07-22T04:49:22.114Z,18.12
2018-07-22T04:51:50.345Z,19.07
2018-07-22T04:54:18.765Z,18.00
2018-07-22T04:56:50.917Z,20.97
2018-07-22T04:59:19.205Z,18.98
2018-07-22T05:01:47.441Z,15.43
2018-07-22T05:04:15.738Z,14.70
2018-07-22T05:06:43.987Z,15.93
2018-07-22T05:09:13.023Z,16.57
2018-07-22T05:11:41.548Z,17.62
2018-07-22T05:14:09.777Z,16.50
2018-07-22T05:16:38.611Z,16.60
2018-07-22T05:19:07.297Z,14.55
2018-07-22T05:21:35.557Z,18.82
2018-07-22T05:24:03.850Z,14.45
2018-07-22T05:26:32.098Z,12.98
2018-07-22T05:29:00.364Z,14.83
2018-07-22T05:31:29.532Z,16.05
2018-07-22T05:33:57.781Z,14.30
2018-07-22T05:36:26.350Z,14.80
2018-07-22T05:38:54.585Z,13.13
2018-07-22T05:41:22.852Z,14.23
2018-07-22T05:43:51.284Z,14.98
2018-07-22T05:46:19.535Z,11.15
2018-07-22T05:48:47.761Z,11.90
2018-07-22T05:51:16.028Z,16.00
2018-07-22T05:53:44.359Z,11.78
2018-07-22T05:56:12.611Z,15.13
2018-07-22T05:58:40.852Z,12.45
2018-07-22T06:01:09.106Z,12.58
2018-07-22T06:03:37.324Z,11.97
2018-07-22T06:06:05.694Z,13.88
2018-07-22T06:08:33.951Z,11.70
2018-07-22T06:11:02.589Z,9.80
2018-07-22T06:13:30.837Z,10.82
2018-07-22T06:15:59.249Z,9.95
2018-07-22T06:18:27.549Z,10.35
2018-07-22T06:20:55.786Z,10.05
2018-07-22T06:23:24.764Z,9.55
2018-07-22T06:25:53.004Z,9.55
2018-07-22T06:28:21.253Z,12.20
2018-07-22T06:30:49.521Z,10.30
2018-07-22T06:33:17.805Z,10.35
2018-07-22T06:35:46.053Z,9.80
2018-07-22T06:38:14.571Z,8.63
2018-07-22T06:40:42.822Z,8.88
2018-07-22T06:43:11.042Z,8.10
2018-07-22T06:45:39.270Z,9.95
2018-07-22T06:48:07.569Z,11.35
2018-07-22T06:50:35.949Z,8.90
2018-07-22T06:53:04.243Z,8.85
2018-07-22T06:55:32.500Z,7.53
2018-07-22T06:58:00.732Z,11.65
2018-07-22T07:00:28.988Z,9.30
2018-07-22T07:02:57.223Z,10.03
2018-07-22T07:05:25.535Z,8.25
2018-07-22T07:07:53.701Z,9.48
2018-07-22T07:10:22.140Z,9.35
2018-07-22T07:12:50.418Z,9.80
2018-07-22T07:15:18.760Z,8.15
2018-07-22T07:17:46.990Z,8.63
2018-07-22T07:20:15.285Z,5.22
2018-07-22T07:25:18.320Z,8.30
2018-07-22T07:27:46.609Z,11.22
2018-07-22T07:30:14.898Z,8.35
2018-07-22T07:32:43.172Z,9.63
2018-07-22T07:35:11.435Z,11.90
2018-07-22T07:37:39.894Z,7.03
2018-07-22T07:40:08.206Z,6.03
2018-07-22T07:42:36.502Z,9.65
2018-07-22T07:45:05.268Z,7.15
2018-07-22T07:47:33.612Z,5.40
2018-07-22T07:50:02.385Z,6.15
2018-07-22T07:52:30.633Z,4.60
2018-07-22T07:54:59.293Z,6.55
2018-07-22T07:57:27.572Z,6.22
2018-07-22T07:59:55.860Z,9.35
2018-07-22T08:02:25.652Z,6.28
2018-07-22T08:04:54.864Z,6.45
2018-07-22T08:07:23.134Z,6.00
2018-07-22T08:09:51.421Z,5.60
2018-07-22T08:12:19.649Z,7.08
2018-07-22T08:14:47.975Z,4.40
2018-07-22T08:17:16.292Z,4.62
2018-07-22T08:19:44.748Z,5.20
2018-07-22T08:22:13.027Z,10.05
2018-07-22T08:24:41.299Z,4.60
2018-07-22T08:27:10.166Z,6.47
2018-07-22T08:29:38.393Z,4.35
2018-07-22T08:32:07.229Z,5.45
2018-07-22T08:34:35.499Z,5.97
2018-07-22T08:37:04.309Z,4.03
2018-07-22T08:39:33.272Z,5.55
2018-07-22T08:42:01.943Z,4.65
2018-07-22T08:44:30.189Z,6.42
2018-07-22T08:46:58.502Z,5.22
2018-07-22T08:49:26.766Z,3.58
2018-07-22T08:51:54.991Z,7.80
2018-07-22T08:54:23.301Z,5.62
2018-07-22T08:56:51.591Z,4.50
2018-07-22T08:59:19.916Z,5.12
2018-07-22T09:01:48.208Z,6.40
2018-07-22T09:04:16.500Z,5.92
2018-07-22T09:06:44.738Z,3.60
2018-07-22T09:09:13.099Z,4.40
2018-07-22T09:11:41.386Z,6.72
2018-07-22T09:14:10.267Z,5.95
2018-07-22T09:16:38.525Z,4.80
2018-07-22T09:19:06.773Z,5.35
2018-07-22T09:21:34.988Z,5.90
2018-07-22T09:24:03.250Z,8.33
2018-07-22T09:26:31.497Z,8.45
2018-07-22T09:28:59.745Z,5.28
2018-07-22T09:31:28.001Z,6.33
2018-07-22T09:33:56.277Z,5.08
2018-07-22T09:36:24.563Z,4.45
2018-07-22T09:38:52.854Z,4.12
2018-07-22T09:41:21.130Z,5.90
2018-07-22T09:43:49.421Z,6.12
2018-07-22T09:46:17.851Z,4.08
2018-07-22T09:48:46.091Z,6.22
2018-07-22T09:51:14.401Z,3.75
2018-07-22T09:53:42.699Z,5.42
2018-07-22T09:56:10.899Z,8.18
2018-07-22T09:58:39.187Z,4.72
2018-07-22T10:01:07.452Z,6.30
2018-07-22T10:03:35.785Z,4.60
2018-07-22T10:06:04.089Z,5.42
2018-07-22T10:08:32.351Z,5.65
2018-07-22T10:11:00.630Z,5.37
2018-07-22T10:13:28.911Z,6.62
2018-07-22T10:15:57.256Z,6.78
2018-07-22T10:18:25.829Z,6.47
2018-07-22T10:20:54.061Z,7.03
2018-07-22T10:23:23.508Z,4.78
2018-07-22T10:25:51.896Z,5.12
2018-07-22T10:28:20.137Z,5.45
2018-07-22T10:30:48.696Z,4.15
2018-07-22T10:33:16.992Z,4.00
2018-07-22T10:35:45.309Z,6.33
2018-07-22T10:38:13.521Z,4.97
2018-07-22T10:40:41.833Z,6.83
2018-07-22T10:43:10.297Z,4.70
2018-07-22T10:45:38.662Z,5.40
2018-07-22T10:48:06.930Z,3.90
2018-07-22T10:50:35.188Z,4.72
2018-07-22T10:53:03.460Z,3.95
2018-07-22T10:55:31.677Z,6.67
2018-07-22T10:57:59.912Z,4.40
2018-07-22T11:00:28.177Z,6.75
2018-07-22T11:02:56.457Z,4.47
2018-07-22T11:05:24.748Z,4.85
2018-07-22T11:07:53.023Z,7.80
2018-07-22T11:10:21.304Z,5.08
2018-07-22T11:12:49.601Z,5.30
2018-07-22T11:15:17.915Z,6.00
2018-07-22T11:17:46.269Z,6.28
2018-07-22T11:20:14.608Z,5.78
2018-07-22T11:22:42.860Z,4.45
2018-07-22T11:25:11.095Z,5.22
2018-07-22T11:27:39.338Z,6.53
2018-07-22T11:30:07.606Z,7.85
2018-07-22T11:32:35.833Z,5.35
2018-07-22T11:35:03.862Z,4.15
2018-07-22T11:37:32.311Z,6.90
2018-07-22T11:40:00.570Z,5.75
2018-07-22T11:42:28.809Z,6.67
2018-07-22T11:44:57.113Z,5.80
2018-07-22T11:47:25.417Z,8.03
2018-07-22T11:49:53.715Z,7.92
2018-07-22T11:52:21.955Z,8.45
2018-07-22T11:54:50.229Z,6.00
2018-07-22T11:57:18.466Z,8.35
2018-07-22T11:59:46.748Z,7.75
2018-07-22T12:02:15.032Z,6.87
2018-07-22T12:04:43.343Z,6.65
2018-07-22T12:07:11.613Z,7.95
2018-07-22T12:09:39.846Z,9.53
2018-07-22T12:12:08.148Z,8.65
2018-07-22T12:14:36.368Z,11.20
2018-07-22T12:17:05.615Z,7.10
2018-07-22T12:19:33.926Z,6.83
2018-07-22T12:22:02.173Z,3.72
2018-07-22T12:24:30.426Z,3.00
2018-07-22T12:26:58.709Z,3.50
2018-07-22T12:29:26.997Z,4.65
2018-07-22T12:31:55.609Z,3.27
2018-07-22T12:34:23.842Z,3.37
2018-07-22T12:36:52.077Z,3.17
2018-07-22T12:39:20.442Z,4.65
2018-07-22T12:41:48.677Z,5.17
2018-07-22T12:44:16.986Z,6.58
2018-07-22T12:46:45.222Z,4.20
2018-07-22T12:49:13.485Z,3.02
2018-07-22T12:51:41.750Z,2.15
2018-07-22T12:54:10.007Z,2.95
2018-07-22T12:56:38.371Z,2.67
2018-07-22T12:59:06.630Z,3.22
2018-07-22T13:01:34.846Z,3.52
2018-07-22T13:04:03.415Z,4.90
2018-07-22T13:06:31.672Z,4.12
2018-07-22T13:08:59.894Z,4.53
2018-07-22T13:11:28.194Z,3.25
2018-07-22T13:13:56.453Z,3.33
2018-07-22T13:16:24.683Z,3.05
2018-07-22T13:18:52.978Z,3.20
2018-07-22T13:21:21.165Z,5.08
2018-07-22T13:23:49.402Z,10.32
2018-07-22T13:26:17.636Z,3.95
2018-07-22T13:28:45.934Z,2.02
2018-07-22T13:31:14.163Z,2.15
2018-07-22T13:33:42.379Z,2.90
2018-07-22T13:36:10.630Z,3.40
2018-07-22T13:38:38.869Z,5.17
2018-07-22T13:41:07.147Z,3.47
2018-07-22T13:43:35.410Z,4.08
2018-07-22T13:46:03.647Z,9.23
2018-07-22T13:48:31.889Z,2.70
2018-07-22T13:51:00.163Z,2.52
2018-07-22T13:53:28.446Z,6.20
2018-07-22T13:55:56.712Z,2.50
2018-07-22T13:58:25.028Z,2.17
2018-07-22T14:00:53.263Z,2.50
2018-07-22T14:03:21.559Z,3.42
2018-07-22T14:05:49.816Z,3.70
2018-07-22T14:08:18.117Z,7.05
2018-07-22T14:10:46.389Z,4.00
2018-07-22T14:13:14.644Z,4.70
2018-07-22T14:15:42.976Z,4.17
2018-07-22T14:18:11.170Z,6.78
2018-07-22T14:20:39.433Z,6.65
2018-07-22T14:23:14.112Z,3.55
2018-07-22T14:25:42.373Z,4.45
2018-07-22T14:28:10.780Z,3.47
2018-07-22T14:30:39.017Z,4.28
2018-07-22T14:33:07.393Z,4.00
2018-07-22T14:35:35.626Z,4.95
2018-07-22T14:38:04.088Z,5.25
2018-07-22T14:40:32.370Z,4.58
2018-07-22T14:43:00.625Z,4.22
2018-07-22T14:45:28.889Z,4.15
2018-07-22T14:47:57.147Z,2.85
2018-07-22T14:50:25.371Z,5.40
2018-07-22T14:52:53.654Z,7.05
2018-07-22T14:55:21.948Z,3.62
2018-07-22T14:57:50.203Z,5.55
2018-07-22T15:00:24.915Z,4.72
2018-07-22T15:02:53.140Z,5.10
2018-07-22T15:05:21.450Z,4.87
2018-07-22T15:07:49.686Z,3.72
2018-07-22T15:10:17.953Z,7.85
2018-07-22T15:12:46.192Z,6.28
2018-07-22T15:15:14.541Z,4.20
2018-07-22T15:17:43.028Z,4.03
2018-07-22T15:20:11.261Z,6.17
2018-07-22T15:22:39.569Z,4.90
2018-07-22T15:25:07.826Z,7.17
2018-07-22T15:27:36.309Z,3.52
2018-07-22T15:30:05.160Z,4.87
2018-07-22T15:32:33.457Z,3.62
2018-07-22T15:35:01.693Z,6.25
2018-07-22T15:37:29.977Z,8.40
2018-07-22T15:39:58.240Z,6.53
2018-07-22T15:42:26.469Z,6.15
2018-07-22T15:44:54.736Z,7.95
2018-07-22T15:47:22.999Z,8.05
2018-07-22T15:49:51.215Z,8.43
2018-07-22T15:52:19.485Z,6.90
2018-07-22T15:54:47.808Z,7.15
2018-07-22T15:57:16.092Z,6.15
2018-07-22T15:59:44.385Z,5.08
2018-07-22T16:02:12.614Z,5.17
2018-07-22T16:04:40.950Z,7.28
2018-07-22T16:07:09.220Z,7.78
2018-07-22T16:09:37.460Z,6.12
2018-07-22T16:12:05.964Z,5.58
2018-07-22T16:14:34.208Z,6.37
2018-07-22T16:17:02.653Z,8.73
2018-07-22T16:19:30.972Z,7.30
2018-07-22T16:21:59.240Z,6.15
2018-07-22T16:24:27.509Z,6.05
2018-07-22T16:26:55.757Z,5.20
2018-07-22T16:29:24.359Z,4.85
2018-07-22T16:31:52.670Z,6.70
2018-07-22T16:34:20.895Z,5.70
2018-07-22T16:36:49.153Z,7.17
2018-07-22T16:39:17.635Z,6.50
2018-07-22T16:41:45.900Z,7.08
2018-07-22T16:44:14.397Z,7.33
2018-07-22T16:46:42.617Z,7.33
2018-07-22T16:49:10.849Z,7.95
2018-07-22T16:51:39.358Z,6.20
2018-07-22T16:54:07.632Z,6.90
2018-07-22T16:56:37.391Z,6.65
2018-07-22T16:59:05.640Z,5.58
2018-07-22T17:01:33.880Z,6.92
2018-07-22T17:04:02.189Z,6.33
2018-07-22T17:06:30.453Z,5.67
2018-07-22T17:09:06.703Z,6.50
2018-07-22T17:11:34.970Z,4.47
2018-07-22T17:14:03.223Z,3.90
2018-07-22T17:16:31.543Z,6.20
2018-07-22T17:18:59.826Z,7.60
2018-07-22T17:21:28.054Z,5.35
2018-07-22T17:23:56.536Z,5.53
2018-07-22T17:26:24.857Z,6.55
2018-07-22T17:28:53.096Z,5.80
2018-07-22T17:31:21.373Z,7.10
2018-07-22T17:33:49.616Z,4.90
2018-07-22T17:36:18.145Z,5.35
2018-07-22T17:38:46.383Z,4.95
2018-07-22T17:41:14.665Z,4.55
2018-07-22T17:43:42.940Z,5.95
2018-07-22T17:46:11.153Z,6.12
2018-07-22T17:48:39.495Z,4.85
2018-07-22T17:51:07.735Z,7.78
2018-07-22T17:53:36.072Z,8.40
2018-07-22T17:56:04.337Z,6.28
2018-07-22T17:58:32.617Z,5.08
2018-07-22T18:01:00.859Z,5.85
2018-07-22T18:03:30.280Z,5.47
2018-07-22T18:05:58.565Z,5.37
2018-07-22T18:08:26.853Z,8.33
2018-07-22T18:10:55.727Z,5.65
2018-07-22T18:13:23.967Z,5.50
2018-07-22T18:15:51.947Z,6.80
2018-07-22T18:18:20.942Z,6.35
2018-07-22T18:20:49.824Z,9.03
2018-07-22T18:23:18.642Z,5.45
2018-07-22T18:25:47.229Z,8.28
2018-07-22T18:28:16.133Z,5.62
2018-07-22T18:30:45.017Z,7.40
2018-07-22T18:33:13.290Z,5.17
2018-07-22T18:35:41.528Z,9.83
2018-07-22T18:38:09.851Z,7.35
2018-07-22T18:40:38.141Z,4.85
2018-07-22T18:43:06.365Z,5.03
2018-07-22T18:45:35.619Z,5.55
2018-07-22T18:48:04.837Z,7.17
2018-07-22T18:50:33.145Z,5.95
2018-07-22T18:53:01.387Z,6.05
2018-07-22T18:55:29.663Z,5.12
2018-07-22T18:57:57.904Z,6.65
2018-07-22T19:00:26.173Z,6.42
2018-07-22T19:02:54.448Z,6.12
2018-07-22T19:05:22.769Z,9.80
2018-07-22T19:07:50.989Z,5.95
2018-07-22T19:10:19.302Z,5.37
2018-07-22T19:12:47.608Z,9.30
2018-07-22T19:15:15.911Z,5.22
2018-07-22T19:17:44.301Z,6.62
2018-07-22T19:20:12.570Z,7.58
2018-07-22T19:22:40.795Z,5.40
2018-07-22T19:25:09.097Z,5.78
2018-07-22T19:27:37.366Z,5.22
2018-07-22T19:30:06.093Z,5.42
2018-07-22T19:32:34.369Z,8.25
2018-07-22T19:35:02.625Z,6.53
2018-07-22T19:37:30.944Z,5.45
2018-07-22T19:39:59.244Z,5.10
2018-07-22T19:42:27.462Z,6.95
2018-07-22T19:44:55.685Z,6.35
2018-07-22T19:47:23.989Z,6.40
2018-07-22T19:49:52.226Z,7.58
2018-07-22T19:52:20.554Z,4.15
2018-07-22T19:54:48.838Z,8.45
2018-07-22T19:57:18.068Z,5.97
2018-07-22T19:59:46.316Z,7.33
2018-07-22T20:02:14.612Z,6.92
2018-07-22T20:04:42.857Z,5.12
2018-07-22T20:07:11.095Z,6.95
2018-07-22T20:09:39.355Z,6.80
2018-07-22T20:12:07.874Z,6.12
2018-07-22T20:14:36.120Z,6.15
2018-07-22T20:17:04.446Z,6.05
2018-07-22T20:19:32.929Z,9.95
2018-07-22T20:22:01.215Z,6.70
2018-07-22T20:24:29.476Z,8.23
2018-07-22T20:26:58.033Z,8.18
2018-07-22T20:29:26.304Z,7.47
2018-07-22T20:31:54.565Z,8.03
2018-07-22T20:34:22.816Z,5.67
2018-07-22T20:36:51.078Z,7.50
2018-07-22T20:39:19.369Z,9.20
2018-07-22T20:41:47.658Z,6.55
2018-07-22T20:44:15.932Z,6.22
2018-07-22T20:46:44.217Z,4.42
2018-07-22T20:49:12.477Z,12.93
2018-07-22T20:51:40.698Z,6.20
2018-07-22T20:54:08.936Z,5.12
2018-07-22T20:56:37.175Z,5.97
2018-07-22T20:59:05.524Z,7.60
2018-07-22T21:01:33.769Z,6.80
2018-07-22T21:04:02.097Z,6.05
2018-07-22T21:06:30.418Z,7.95
2018-07-22T21:08:58.675Z,7.42
2018-07-22T21:11:35.893Z,7.67
2018-07-22T21:14:04.698Z,7.40
2018-07-22T21:16:32.949Z,10.70
2018-07-22T21:19:03.082Z,5.58
2018-07-22T21:21:31.334Z,8.45
2018-07-22T21:23:59.570Z,6.30
2018-07-22T21:26:27.840Z,9.00
2018-07-22T21:28:56.110Z,7.70
2018-07-22T21:31:24.434Z,9.35
2018-07-22T21:33:52.690Z,6.15
2018-07-22T21:36:20.918Z,5.10
2018-07-22T21:38:49.241Z,6.67
2018-07-22T21:41:17.476Z,7.10
2018-07-22T21:43:45.709Z,7.70
2018-07-22T21:46:13.992Z,6.80
2018-07-22T21:48:42.236Z,4.12
2018-07-22T21:51:10.520Z,4.60
2018-07-22T21:53:38.800Z,9.63
2018-07-22T21:56:07.045Z,6.90
2018-07-22T21:58:35.329Z,8.48
2018-07-22T22:01:03.617Z,6.20
2018-07-22T22:03:31.894Z,7.22
2018-07-22T22:06:00.174Z,6.05
2018-07-22T22:08:28.425Z,5.55
2018-07-22T22:10:56.670Z,5.15
2018-07-22T22:13:24.917Z,7.10
2018-07-22T22:15:53.359Z,6.15
2018-07-22T22:18:21.585Z,6.55
2018-07-22T22:20:49.833Z,6.83
2018-07-22T22:23:18.093Z,6.75
2018-07-22T22:25:46.329Z,9.63
2018-07-22T22:28:14.569Z,4.72
2018-07-22T22:30:42.860Z,4.87
2018-07-22T22:33:11.110Z,7.50
2018-07-22T22:35:39.361Z,8.75
2018-07-22T22:38:07.682Z,5.42
2018-07-22T22:40:35.932Z,11.60
2018-07-22T22:43:04.209Z,6.83
2018-07-22T22:45:32.445Z,8.30
2018-07-22T22:48:00.716Z,9.78
2018-07-22T22:50:28.946Z,10.18
2018-07-22T22:52:57.196Z,14.63
2018-07-22T22:55:25.420Z,8.30
2018-07-22T22:58:05.061Z,6.37
2018-07-22T23:00:33.325Z,5.85
2018-07-22T23:03:01.570Z,6.22
2018-07-22T23:05:29.830Z,6.60
2018-07-22T23:07:58.316Z,8.38
2018-07-22T23:10:26.575Z,7.28
2018-07-22T23:12:54.798Z,9.28
2018-07-22T23:15:23.013Z,7.47
2018-07-22T23:17:51.253Z,9.23
2018-07-22T23:20:19.506Z,12.03
2018-07-22T23:22:47.746Z,13.10
2018-07-22T23:25:15.970Z,14.85
2018-07-22T23:27:44.237Z,15.40
2018-07-22T23:30:12.486Z,5.42
2018-07-22T23:32:40.721Z,7.60
2018-07-22T23:35:09.830Z,8.78
2018-07-22T23:37:38.041Z,9.10
2018-07-22T23:40:06.268Z,9.15
2018-07-22T23:42:34.518Z,5.95
2018-07-22T23:45:02.768Z,4.92
2018-07-22T23:47:31.052Z,6.45
2018-07-22T23:49:59.289Z,4.97
2018-07-22T23:52:27.559Z,6.72
2018-07-22T23:54:55.800Z,6.30
2018-07-22T23:57:24.070Z,5.45
2018-07-22T23:59:52.304Z,6.90
